This is the latest recevied weather packets stored in our database for station/object OK3MS-5. If no packets are shown the sender has not sent any weather packets the latest 10 day(s).
| Time | Temp. | Humidity | Pressure | Rain* | Wind** | Luminosity | Snow |
|---|---|---|---|---|---|---|---|
| 1787410505 | 18.89° C | 64% | 1016 hPa | 0 mm | - | 411 W/m² | - |
| 1787410204 | 18.33° C | 69% | 1016 hPa | 0 mm | - | 380 W/m² | - |
| 1787409904 | 18.89° C | 67% | 1016 hPa | 0 mm | - | 154 W/m² | - |
| 1787409604 | 18.89° C | 67% | 1016 hPa | 0 mm | - | 413 W/m² | - |
| 1787409304 | 18.33° C | 68% | 1016.2 hPa | 0 mm | - | 412 W/m² | - |
| 1787409003 | 18.89° C | 68% | 1016.1 hPa | 0 mm | - | 428 W/m² | - |
| 1787408703 | 18.33° C | 70% | 1016.2 hPa | 0.25 mm | - | 118 W/m² | - |
| 1787408402 | 17.78° C | 72% | 1016.3 hPa | 0.25 mm | - | 460 W/m² | - |
| 1787408111 | 17.78° C | 71% | 1016.5 hPa | 0.25 mm | - | 423 W/m² | - |
| 1787407803 | 17.22° C | 74% | 1016.6 hPa | 0.51 mm | - | 326 W/m² | - |
| 1787407506 | 17.22° C | 73% | 1016.4 hPa | 0.51 mm | - | 495 W/m² | - |
| 1787407203 | 16.67° C | 80% | 1016.5 hPa | 1.02 mm | - | 533 W/m² | - |
| 1787406903 | 16.67° C | 80% | 1016.5 hPa | 1.02 mm | - | 475 W/m² | - |
| 1787406606 | 16.67° C | 81% | 1016.5 hPa | 1.02 mm | - | 538 W/m² | - |
| 1787406303 | 15.56° C | 87% | 1016.6 hPa | 1.02 mm | - | 531 W/m² | - |
| 1787406003 | 15° C | 88% | 1016.8 hPa | 1.02 mm | - | 537 W/m² | - |
| 1787405703 | 14.44° C | 89% | 1017 hPa | 1.02 mm | - | 576 W/m² | - |
| 1787405404 | 13.89° C | 91% | 1017.1 hPa | 1.02 mm | - | 734 W/m² | - |
| 1787405104 | 13.89° C | 91% | 1017.1 hPa | 0.76 mm | - | 213 W/m² | - |
| 1787404802 | 13.89° C | 90% | 1017.3 hPa | 0.76 mm | - | 104 W/m² | - |
| 1787404509 | 13.33° C | 91% | 1017.3 hPa | 0.76 mm | - | 121 W/m² | - |
| 1787404203 | 13.89° C | 91% | 1017.3 hPa | 0.51 mm | - | 59 W/m² | - |
| 1787403903 | 13.89° C | 89% | 1017.3 hPa | 0.51 mm | - | 47 W/m² | - |
| 1787403605 | 14.44° C | 87% | 1017.1 hPa | 0.25 mm | - | 47 W/m² | - |
| 1787403303 | 15.56° C | 82% | 1016.7 hPa | 0 mm | - | 68 W/m² | - |
* Rain latest hour (hover to see other rain measurements)
** Current wind speed in m/s (hover to see current wind gust speed)